Hlavní strana
METAR-TAF:

METAR-TAF

Letiště :

Djanet, Alžírsko

zeměpisná šířka: 24-33N, zeměpisná délka: 009-28E, výška: 1054 m

Aktuální stav počasí

Zpráva byla vytvořena před 32 minutami, v 06:00 UTC
Východní vítr 3 kt
Teplota 11°C
Vlhkost vzduchu 24%
Tlak 1027 hPa
Viditelnost 10 km a více
Polojasno ve výšce 4600 ft
Polojasno ve výšce 10000 ft

METAR: DAAJ 250600Z 09003KT 9999 SCT046 SCT100 11/M09 Q1027

Čas: 07:32 (06:32 UTC)

Předpověď počasí

Zpráva byla vytvořena před 1 hodinou a 32 minutami, v 05:00 UTC
Předpověď platná od 25 v 06 UTC do 26 v 06 UTC
Severovýchodní vítr 8 kt
Viditelnost 10 km a více
Polojasno ve výšce 4600 ft
Polojasno ve výšce 10000 ft

TAF: DAAJ 250500Z 2506/2606 04008KT 9999 SCT046 SCT100

Stav a předpovědi počasí z více než 4 000 letišť (zprávy METAR a TAF).

Červené a žluté tečky na mapě představují dostupné meteorologické stanice.

Když kurzor umístíte na tečku, zobrazí se název stanice.

Pak kliknutím zobrazíte stav a předpověď počasí.

Chcete-li změnit mapu, kliknutím na zelené tlačítko se znaménkem +mapu přiblížíte, kliknutím na zelené tlačítko se znaménkem – mapu oddálíte a kliknutím na zelené šipky přejdete na sousední mapy.


METAR-TAF: